KRME/RME METAR and TAF weather

Enter ICAO airport designator
Station Type Date Time Source
KRME METAR 2019/08/25 06:53 UTC NOAA

KRME 250653Z AUTO 05003KT 10SM CLR 12/11 A3030 RMK AO2 SLP258 T01170111


Station Type Date Time Source
KRME Decoded METAR 2019/08/25 06:53 UTC NOAA

Station name not available
Aug 25, 2019 - 02:53 AM EDT / 2019.08.25 0653 UTC
Wind: from the NE (050 degrees) at 3 MPH (3 KT):0
Visibility: 10 mile(s):0
Sky conditions: clear
Temperature: 53.1 F (11.7 C)
Dew Point: 52.0 F (11.1 C)
Relative Humidity: 96%
Pressure (altimeter): 30.3 in. Hg (1026 hPa)
ob: KRME 250653Z AUTO 05003KT 10SM CLR 12/11 A3030 RMK AO2 SLP258 T01170111
cycle: 7

Station Type Date Time Source
KRME TAF 2019/08/25 06:22 UTC NOAA

TAF KRME 250520Z 2506/2606 11003KT P6SM SKC
FM251400 11005KT P6SM BKN050

Example: see airport list